Time,TemperatureF,DewpointF,PressureIn,WindDirection,WindDirectionDegrees,WindSpeedMPH,WindSpeedGustMPH,Humidity,HourlyPrecipIn,Conditions,Clouds,dailyrainin,SoftwareType,DateUTC
2013-11-17 00:01:00,52.8,48.7,30.26,North,0,0.0,0.0,86,0.00,,,0.00,VWS V13.00,2013-11-17 05:01:00,
2013-11-17 00:06:00,52.8,48.7,30.26,NW,315,2.2,2.9,86,0.00,,,0.00,VWS V13.00,2013-11-17 05:06:00,
2013-11-17 00:11:00,52.7,48.6,30.25,NW,315,2.9,2.9,86,0.00,,,0.00,VWS V13.00,2013-11-17 05:11:00,
2013-11-17 00:16:00,52.3,48.2,30.25,NNW,338,1.7,2.9,86,0.00,,,0.00,VWS V13.00,2013-11-17 05:16:00,
2013-11-17 00:21:00,51.9,47.8,30.25,North,0,2.6,2.6,86,0.00,,,0.00,VWS V13.00,2013-11-17 05:21:00,
2013-11-17 00:26:00,51.6,47.6,30.26,NW,315,0.0,3.5,86,0.00,,,0.00,VWS V13.00,2013-11-17 05:26:00,
2013-11-17 00:31:00,51.4,47.4,30.26,NNW,338,2.0,3.5,86,0.00,,,0.00,VWS V13.00,2013-11-17 05:31:00,
2013-11-17 00:36:00,50.9,46.9,30.26,NW,315,1.3,3.5,86,0.00,,,0.00,VWS V13.00,2013-11-17 05:36:00,
2013-11-17 00:41:00,50.7,46.7,30.26,North,0,4.4,4.4,86,0.00,,,0.00,VWS V13.00,2013-11-17 05:41:00,
2013-11-17 00:46:00,50.7,46.7,30.25,WNW,292,0.0,4.4,86,0.00,,,0.00,VWS V13.00,2013-11-17 05:46:00,
2013-11-17 00:51:00,50.7,46.7,30.25,WNW,292,0.0,4.4,86,0.00,,,0.00,VWS V13.00,2013-11-17 05:51:00,
2013-11-17 00:56:00,50.9,46.9,30.25,NW,315,0.0,4.4,86,0.00,,,0.00,VWS V13.00,2013-11-17 05:56:00,
2013-11-17 01:01:00,51.0,47.0,30.25,NNW,338,0.8,3.3,86,0.00,,,0.00,VWS V13.00,2013-11-17 06:01:00,
2013-11-17 01:07:00,51.0,47.0,30.25,NNW,338,3.1,4.0,86,0.00,,,0.00,VWS V13.00,2013-11-17 06:07:00,
2013-11-17 01:12:00,51.0,47.0,30.25,NW,315,2.0,4.4,86,0.00,,,0.00,VWS V13.00,2013-11-17 06:12:00,
2013-11-17 01:17:00,51.0,47.0,30.25,NNW,338,4.9,5.8,86,0.00,,,0.00,VWS V13.00,2013-11-17 06:17:00,
2013-11-17 01:22:00,50.9,46.9,30.25,NNW,338,1.7,1.7,86,0.00,,,0.00,VWS V13.00,2013-11-17 06:22:00,
2013-11-17 01:27:00,50.7,46.7,30.25,North,0,4.0,4.0,86,0.00,,,0.00,VWS V13.00,2013-11-17 06:27:00,
2013-11-17 01:32:00,50.7,46.7,30.25,NNW,338,2.0,4.0,86,0.00,,,0.00,VWS V13.00,2013-11-17 06:32:00,
2013-11-17 01:37:00,50.9,46.9,30.25,North,0,2.2,4.0,86,0.00,,,0.00,VWS V13.00,2013-11-17 06:37:00,
2013-11-17 01:42:00,51.0,47.3,30.24,NW,315,1.5,1.5,87,0.00,,,0.00,VWS V13.00,2013-11-17 06:42:00,
2013-11-17 01:47:00,51.6,47.9,30.24,NNW,338,0.0,1.5,87,0.00,,,0.00,VWS V13.00,2013-11-17 06:47:00,
2013-11-17 01:52:00,51.8,48.1,30.24,NW,315,0.0,1.5,87,0.00,,,0.00,VWS V13.00,2013-11-17 06:52:00,
2013-11-17 01:57:00,51.9,48.2,30.24,SE,135,0.0,1.5,87,0.00,,,0.00,VWS V13.00,2013-11-17 06:57:00,
2013-11-17 02:02:00,51.9,48.2,30.24,North,0,3.3,3.3,87,0.00,,,0.00,VWS V13.00,2013-11-17 07:02:00,
2013-11-17 02:07:00,51.9,48.2,30.23,NE,45,3.1,3.3,87,0.00,,,0.00,VWS V13.00,2013-11-17 07:07:00,
2013-11-17 02:12:00,51.6,47.9,30.23,NNE,22,1.5,3.3,87,0.00,,,0.00,VWS V13.00,2013-11-17 07:12:00,
2013-11-17 02:17:00,51.6,47.9,30.23,NW,315,0.0,3.5,87,0.00,,,0.00,VWS V13.00,2013-11-17 07:17:00,
2013-11-17 02:22:00,51.4,47.7,30.23,NNW,338,2.2,2.2,87,0.00,,,0.00,VWS V13.00,2013-11-17 07:22:00,
2013-11-17 02:27:00,51.2,47.5,30.23,North,0,0.0,3.8,87,0.00,,,0.00,VWS V13.00,2013-11-17 07:27:00,
2013-11-17 02:32:00,51.0,47.6,30.22,NW,315,0.0,3.8,88,0.00,,,0.00,VWS V13.00,2013-11-17 07:32:00,
2013-11-17 02:37:00,51.0,47.6,30.22,North,0,2.9,3.8,88,0.00,,,0.00,VWS V13.00,2013-11-17 07:37:00,
2013-11-17 02:42:00,50.9,47.5,30.22,NNW,338,4.0,4.0,88,0.00,,,0.00,VWS V13.00,2013-11-17 07:42:00,
2013-11-17 02:47:00,50.7,47.3,30.22,North,0,0.0,4.0,88,0.00,,,0.00,VWS V13.00,2013-11-17 07:47:00,
2013-11-17 02:52:00,50.7,47.3,30.22,NNE,22,0.0,4.0,88,0.00,,,0.00,VWS V13.00,2013-11-17 07:52:00,
2013-11-17 02:57:00,50.7,47.3,30.22,NNE,22,0.0,4.0,88,0.00,,,0.00,VWS V13.00,2013-11-17 07:57:00,
2013-11-17 03:02:00,50.5,47.1,30.22,NNW,338,0.0,0.0,88,0.00,,,0.00,VWS V13.00,2013-11-17 08:02:00,
2013-11-17 03:07:00,50.5,47.1,30.23,North,0,2.2,2.2,88,0.00,,,0.00,VWS V13.00,2013-11-17 08:07:00,
2013-11-17 03:12:00,50.5,47.1,30.22,North,0,0.0,2.2,88,0.00,,,0.00,VWS V13.00,2013-11-17 08:12:00,
2013-11-17 03:17:00,50.3,46.9,30.22,NNE,22,2.0,2.2,88,0.00,,,0.00,VWS V13.00,2013-11-17 08:17:00,
2013-11-17 03:22:00,50.1,46.7,30.23,North,0,1.5,1.5,88,0.00,,,0.00,VWS V13.00,2013-11-17 08:22:00,
2013-11-17 03:27:00,50.1,46.7,30.23,NNW,338,1.5,3.1,88,0.00,,,0.00,VWS V13.00,2013-11-17 08:27:00,
2013-11-17 03:32:00,50.1,46.7,30.23,NNW,338,1.5,3.1,88,0.00,,,0.00,VWS V13.00,2013-11-17 08:32:00,
2013-11-17 03:37:00,50.1,46.7,30.23,NNW,338,2.2,3.1,88,0.00,,,0.00,VWS V13.00,2013-11-17 08:37:00,
2013-11-17 03:42:00,50.3,46.9,30.23,NNW,338,0.0,0.0,88,0.00,,,0.00,VWS V13.00,2013-11-17 08:42:00,
2013-11-17 03:47:00,50.5,47.1,30.23,WNW,292,0.0,0.0,88,0.00,,,0.00,VWS V13.00,2013-11-17 08:47:00,
2013-11-17 03:52:00,50.5,47.1,30.22,North,0,0.0,2.4,88,0.00,,,0.00,VWS V13.00,2013-11-17 08:52:00,
2013-11-17 03:57:00,50.5,47.1,30.22,North,0,2.4,2.4,88,0.00,,,0.00,VWS V13.00,2013-11-17 08:57:00,
2013-11-17 04:02:00,50.5,47.1,30.22,NNW,338,0.8,2.0,88,0.00,,,0.00,VWS V13.00,2013-11-17 09:02:00,
2013-11-17 04:07:00,50.5,47.1,30.22,NW,315,0.0,2.0,88,0.00,,,0.00,VWS V13.00,2013-11-17 09:07:00,
2013-11-17 04:12:00,50.7,47.3,30.22,WNW,292,0.0,2.0,88,0.00,,,0.00,VWS V13.00,2013-11-17 09:12:00,
2013-11-17 04:17:00,51.6,48.2,30.22,West,270,2.0,2.0,88,0.00,,,0.00,VWS V13.00,2013-11-17 09:17:00,
2013-11-17 04:22:00,52.1,48.7,30.21,SE,135,0.0,0.0,88,0.00,,,0.00,VWS V13.00,2013-11-17 09:22:00,
2013-11-17 04:27:00,52.3,49.2,30.21,ENE,68,2.0,2.0,89,0.00,,,0.00,VWS V13.00,2013-11-17 09:27:00,
2013-11-17 04:32:00,52.8,49.7,30.21,West,270,0.0,2.0,89,0.00,,,0.00,VWS V13.00,2013-11-17 09:32:00,
2013-11-17 04:37:00,52.8,49.7,30.22,NW,315,0.0,2.0,89,0.00,,,0.00,VWS V13.00,2013-11-17 09:37:00,
2013-11-17 04:42:00,53.0,49.8,30.21,NE,45,0.0,0.0,89,0.00,,,0.00,VWS V13.00,2013-11-17 09:42:00,
2013-11-17 04:47:00,53.2,50.0,30.21,ESE,112,0.0,0.0,89,0.00,,,0.00,VWS V13.00,2013-11-17 09:47:00,
2013-11-17 04:52:00,53.2,50.0,30.21,WNW,292,0.0,0.0,89,0.00,,,0.00,VWS V13.00,2013-11-17 09:52:00,
2013-11-17 04:57:00,53.2,50.0,30.21,North,0,1.5,1.5,89,0.00,,,0.00,VWS V13.00,2013-11-17 09:57:00,
2013-11-17 05:02:00,53.2,50.0,30.21,South,180,0.0,0.0,89,0.00,,,0.00,VWS V13.00,2013-11-17 10:02:00,
2013-11-17 05:07:00,53.2,50.0,30.22,NNW,338,2.0,2.0,89,0.00,,,0.00,VWS V13.00,2013-11-17 10:07:00,
2013-11-17 05:12:00,53.0,49.8,30.22,NNW,338,2.0,2.6,89,0.00,,,0.00,VWS V13.00,2013-11-17 10:12:00,
2013-11-17 05:17:00,52.8,49.7,30.22,NNE,22,1.1,2.6,89,0.00,,,0.00,VWS V13.00,2013-11-17 10:17:00,
2013-11-17 05:22:00,52.7,49.5,30.22,North,0,0.0,0.0,89,0.00,,,0.00,VWS V13.00,2013-11-17 10:22:00,
2013-11-17 05:27:00,52.5,49.4,30.21,NNW,338,2.9,2.9,89,0.00,,,0.00,VWS V13.00,2013-11-17 10:27:00,
2013-11-17 05:32:00,52.1,49.0,30.21,NNW,338,1.3,2.9,89,0.00,,,0.00,VWS V13.00,2013-11-17 10:32:00,
2013-11-17 05:37:00,51.9,48.8,30.21,NNE,22,0.0,2.9,89,0.00,,,0.00,VWS V13.00,2013-11-17 10:37:00,
2013-11-17 05:42:00,51.9,48.8,30.21,NNW,338,0.8,0.8,89,0.00,,,0.00,VWS V13.00,2013-11-17 10:42:00,
2013-11-17 05:47:00,51.9,48.8,30.21,NNW,338,1.7,1.7,89,0.00,,,0.00,VWS V13.00,2013-11-17 10:47:00,
2013-11-17 05:52:00,51.8,48.7,30.21,NNW,338,2.0,2.0,89,0.00,,,0.00,VWS V13.00,2013-11-17 10:52:00,
2013-11-17 05:57:00,51.8,48.7,30.21,NNW,338,2.4,2.4,89,0.00,,,0.00,VWS V13.00,2013-11-17 10:57:00,
2013-11-17 06:02:00,51.8,48.7,30.21,North,0,2.0,2.9,89,0.00,,,0.00,VWS V13.00,2013-11-17 11:02:00,
2013-11-17 06:07:00,51.8,48.7,30.21,NNW,338,2.0,2.9,89,0.00,,,0.00,VWS V13.00,2013-11-17 11:07:00,
2013-11-17 06:12:00,51.6,48.5,30.21,NNW,338,2.0,3.5,89,0.00,,,0.00,VWS V13.00,2013-11-17 11:12:00,
2013-11-17 06:17:00,51.6,48.5,30.20,NNW,338,2.2,3.5,89,0.00,,,0.00,VWS V13.00,2013-11-17 11:17:00,
2013-11-17 06:22:00,51.8,48.7,30.20,North,0,0.0,0.0,89,0.00,,,0.00,VWS V13.00,2013-11-17 11:22:00,
2013-11-17 06:27:00,51.9,48.8,30.20,North,0,0.8,2.0,89,0.00,,,0.00,VWS V13.00,2013-11-17 11:27:00,
2013-11-17 06:33:00,52.1,49.0,30.21,NNW,338,2.2,2.2,89,0.00,,,0.00,VWS V13.00,2013-11-17 11:33:00,
2013-11-17 06:38:00,52.1,49.0,30.20,North,0,1.5,2.2,89,0.00,,,0.00,VWS V13.00,2013-11-17 11:38:00,
2013-11-17 06:43:00,52.1,49.0,30.20,NW,315,0.0,0.0,89,0.00,,,0.00,VWS V13.00,2013-11-17 11:43:00,
2013-11-17 06:48:00,52.1,49.0,30.20,NNW,338,1.7,2.2,89,0.00,,,0.00,VWS V13.00,2013-11-17 11:48:00,
2013-11-17 06:53:00,52.1,49.0,30.20,NNW,338,2.0,2.4,89,0.00,,,0.00,VWS V13.00,2013-11-17 11:53:00,
2013-11-17 06:58:00,52.1,49.0,30.20,NNW,338,0.0,2.4,89,0.00,,,0.00,VWS V13.00,2013-11-17 11:58:00,
2013-11-17 07:03:00,52.1,49.0,30.20,NW,315,0.0,2.0,89,0.00,,,0.00,VWS V13.00,2013-11-17 12:03:00,
2013-11-17 07:08:00,52.1,49.0,30.20,West,270,0.0,2.0,89,0.00,,,0.00,VWS V13.00,2013-11-17 12:08:00,
2013-11-17 07:13:00,52.1,49.0,30.20,NNW,338,0.0,2.0,89,0.00,,,0.00,VWS V13.00,2013-11-17 12:13:00,
2013-11-17 07:18:00,52.1,49.0,30.20,North,0,0.8,2.0,89,0.00,,,0.00,VWS V13.00,2013-11-17 12:18:00,
2013-11-17 07:23:00,52.1,49.0,30.20,NNW,338,1.7,11.8,89,0.00,,,0.00,VWS V13.00,2013-11-17 12:23:00,
2013-11-17 07:28:00,52.1,49.0,30.20,North,0,0.0,11.8,89,0.00,,,0.00,VWS V13.00,2013-11-17 12:28:00,
2013-11-17 07:33:00,52.3,49.2,30.20,NE,45,0.0,11.8,89,0.00,,,0.00,VWS V13.00,2013-11-17 12:33:00,
2013-11-17 07:38:00,52.3,49.2,30.18,NW,315,0.0,11.8,89,0.00,,,0.00,VWS V13.00,2013-11-17 12:38:00,
2013-11-17 07:43:00,52.3,49.2,30.18,North,0,1.3,1.3,89,0.00,,,0.00,VWS V13.00,2013-11-17 12:43:00,
2013-11-17 07:48:00,52.5,49.7,30.19,NNW,338,0.0,1.3,90,0.00,,,0.00,VWS V13.00,2013-11-17 12:48:00,
2013-11-17 07:53:00,52.5,49.4,30.19,NNW,338,1.3,1.3,89,0.00,,,0.00,VWS V13.00,2013-11-17 12:53:00,
2013-11-17 07:58:00,52.8,50.0,30.19,WNW,292,0.0,1.3,90,0.00,,,0.00,VWS V13.00,2013-11-17 12:58:00,
2013-11-17 08:03:00,53.2,50.3,30.19,NNW,338,0.8,2.6,90,0.00,,,0.00,VWS V13.00,2013-11-17 13:03:00,
2013-11-17 08:08:00,53.4,50.5,30.20,NNW,338,1.3,3.1,90,0.00,,,0.00,VWS V13.00,2013-11-17 13:08:00,
2013-11-17 08:13:00,53.7,50.8,30.19,NW,315,1.5,3.1,90,0.00,,,0.00,VWS V13.00,2013-11-17 13:13:00,
2013-11-17 08:18:00,53.9,51.0,30.20,NNW,338,1.3,3.1,90,0.00,,,0.00,VWS V13.00,2013-11-17 13:18:00,
2013-11-17 08:23:00,53.9,51.0,30.20,NNW,338,0.0,2.4,90,0.00,,,0.00,VWS V13.00,2013-11-17 13:23:00,
2013-11-17 08:28:00,54.1,51.2,30.20,WNW,292,0.0,2.4,90,0.00,,,0.00,VWS V13.00,2013-11-17 13:28:00,
2013-11-17 08:33:00,54.1,51.2,30.19,North,0,1.5,2.4,90,0.00,,,0.00,VWS V13.00,2013-11-17 13:33:00,
2013-11-17 08:38:00,54.1,51.2,30.20,North,0,1.5,2.4,90,0.00,,,0.00,VWS V13.00,2013-11-17 13:38:00,
2013-11-17 08:43:00,54.3,51.4,30.19,NNW,338,0.0,0.0,90,0.00,,,0.00,VWS V13.00,2013-11-17 13:43:00,
2013-11-17 08:48:00,54.3,51.4,30.19,NNW,338,0.0,0.0,90,0.00,,,0.00,VWS V13.00,2013-11-17 13:48:00,
2013-11-17 08:53:00,54.3,51.4,30.19,NNW,338,1.3,1.3,90,0.00,,,0.00,VWS V13.00,2013-11-17 13:53:00,
2013-11-17 08:58:00,54.6,51.7,30.19,NW,315,0.0,1.3,90,0.00,,,0.00,VWS V13.00,2013-11-17 13:58:00,
2013-11-17 09:03:00,54.8,51.9,30.19,North,0,0.0,0.0,90,0.00,,,0.00,VWS V13.00,2013-11-17 14:03:00,
2013-11-17 09:08:00,55.2,52.3,30.18,WNW,292,0.0,0.0,90,0.00,,,0.00,VWS V13.00,2013-11-17 14:08:00,
2013-11-17 09:13:00,55.5,52.6,30.18,NNE,22,2.2,2.2,90,0.00,,,0.00,VWS V13.00,2013-11-17 14:13:00,
2013-11-17 09:18:00,55.9,53.3,30.19,NW,315,0.0,2.2,91,0.00,,,0.00,VWS V13.00,2013-11-17 14:18:00,
2013-11-17 09:23:00,56.4,53.8,30.19,NNE,22,0.0,0.0,91,0.00,,,0.00,VWS V13.00,2013-11-17 14:23:00,
2013-11-17 09:29:00,57.0,54.4,30.19,NNW,338,0.0,0.0,91,0.00,,,0.00,VWS V13.00,2013-11-17 14:29:00,
2013-11-17 09:34:00,57.3,54.7,30.19,North,0,0.0,0.0,91,0.00,,,0.00,VWS V13.00,2013-11-17 14:34:00,
2013-11-17 09:39:00,57.5,54.6,30.19,NW,315,0.0,1.5,90,0.00,,,0.00,VWS V13.00,2013-11-17 14:39:00,
2013-11-17 09:44:00,57.9,55.0,30.19,North,0,2.0,2.0,90,0.00,,,0.00,VWS V13.00,2013-11-17 14:44:00,
2013-11-17 09:49:00,57.9,55.0,30.19,NW,315,0.0,2.0,90,0.00,,,0.00,VWS V13.00,2013-11-17 14:49:00,
2013-11-17 09:54:00,58.2,55.6,30.19,NW,315,0.0,2.0,91,0.00,,,0.00,VWS V13.00,2013-11-17 14:54:00,
2013-11-17 09:59:00,58.6,55.7,30.19,NW,315,0.0,2.0,90,0.00,,,0.00,VWS V13.00,2013-11-17 14:59:00,
2013-11-17 10:04:00,58.8,55.9,30.19,NW,315,0.0,1.3,90,0.00,,,0.00,VWS V13.00,2013-11-17 15:04:00,
2013-11-17 10:09:00,59.0,56.1,30.19,NW,315,0.0,1.3,90,0.00,,,0.00,VWS V13.00,2013-11-17 15:09:00,
2013-11-17 10:14:00,59.3,56.4,30.19,NW,315,0.0,1.3,90,0.00,,,0.00,VWS V13.00,2013-11-17 15:14:00,
2013-11-17 10:19:00,59.3,56.4,30.18,North,0,1.3,1.3,90,0.00,,,0.00,VWS V13.00,2013-11-17 15:19:00,
2013-11-17 10:24:00,59.7,56.8,30.18,NNW,338,1.1,1.7,90,0.00,,,0.00,VWS V13.00,2013-11-17 15:24:00,
2013-11-17 10:29:00,60.0,57.1,30.18,South,180,0.0,1.7,90,0.00,,,0.00,VWS V13.00,2013-11-17 15:29:00,
2013-11-17 10:34:00,60.0,57.1,30.18,East,90,0.0,1.7,90,0.00,,,0.00,VWS V13.00,2013-11-17 15:34:00,
2013-11-17 10:39:00,60.6,57.7,30.18,SE,135,4.4,4.4,90,0.00,,,0.00,VWS V13.00,2013-11-17 15:39:00,
2013-11-17 10:44:00,60.9,58.0,30.17,ESE,112,0.0,3.3,90,0.00,,,0.00,VWS V13.00,2013-11-17 15:44:00,
2013-11-17 10:49:00,61.1,58.2,30.17,ESE,112,4.0,6.2,90,0.00,,,0.00,VWS V13.00,2013-11-17 15:49:00,
2013-11-17 10:54:00,61.5,58.5,30.17,ESE,112,2.4,6.2,90,0.00,,,0.00,VWS V13.00,2013-11-17 15:54:00,
2013-11-17 10:59:00,61.5,58.5,30.17,SSE,158,0.0,6.2,90,0.00,,,0.00,VWS V13.00,2013-11-17 15:59:00,
2013-11-17 11:04:00,61.5,58.5,30.16,East,90,4.6,4.6,90,0.00,,,0.00,VWS V13.00,2013-11-17 16:04:00,
2013-11-17 11:09:00,61.5,58.5,30.16,SSE,158,3.1,4.6,90,0.00,,,0.00,VWS V13.00,2013-11-17 16:09:00,
2013-11-17 11:14:00,61.3,58.3,30.16,ESE,112,1.1,4.6,90,0.00,,,0.00,VWS V13.00,2013-11-17 16:14:00,
2013-11-17 11:19:00,61.5,58.5,30.16,South,180,3.8,4.6,90,0.00,,,0.00,VWS V13.00,2013-11-17 16:19:00,
2013-11-17 11:24:00,61.7,58.7,30.15,SE,135,3.8,3.8,90,0.00,,,0.00,VWS V13.00,2013-11-17 16:24:00,
2013-11-17 11:29:00,61.8,58.8,30.15,SE,135,2.4,3.8,90,0.00,,,0.00,VWS V13.00,2013-11-17 16:29:00,
2013-11-17 11:34:00,61.8,58.8,30.15,SE,135,1.3,3.8,90,0.00,,,0.00,VWS V13.00,2013-11-17 16:34:00,
2013-11-17 11:39:00,62.2,59.2,30.14,SE,135,2.2,3.8,90,0.00,,,0.00,VWS V13.00,2013-11-17 16:39:00,
2013-11-17 11:44:00,62.4,59.4,30.14,SE,135,0.8,3.1,90,0.00,,,0.00,VWS V13.00,2013-11-17 16:44:00,
2013-11-17 11:49:00,62.4,59.1,30.14,SE,135,0.0,3.1,89,0.00,,,0.00,VWS V13.00,2013-11-17 16:49:00,
2013-11-17 11:54:00,62.4,59.1,30.13,SE,135,1.7,3.1,89,0.00,,,0.00,VWS V13.00,2013-11-17 16:54:00,
2013-11-17 11:59:00,62.9,59.6,30.13,ESE,112,3.3,3.3,89,0.00,,,0.00,VWS V13.00,2013-11-17 16:59:00,
2013-11-17 12:04:00,63.1,59.8,30.13,SE,135,2.2,3.3,89,0.00,,,0.00,VWS V13.00,2013-11-17 17:04:00,
2013-11-17 12:10:00,63.1,59.5,30.13,SSE,158,1.5,4.4,88,0.00,,,0.00,VWS V13.00,2013-11-17 17:10:00,
2013-11-17 12:15:00,63.1,59.5,30.13,SSE,158,2.0,4.4,88,0.00,,,0.00,VWS V13.00,2013-11-17 17:15:00,
2013-11-17 12:20:00,63.3,59.4,30.13,ESE,112,2.6,4.4,87,0.00,,,0.00,VWS V13.00,2013-11-17 17:20:00,
2013-11-17 12:25:00,63.3,59.4,30.12,SSE,158,2.9,2.9,87,0.00,,,0.00,VWS V13.00,2013-11-17 17:25:00,
2013-11-17 12:30:00,63.3,59.4,30.13,ESE,112,1.5,2.9,87,0.00,,,0.00,VWS V13.00,2013-11-17 17:30:00,
2013-11-17 12:35:00,63.3,59.0,30.12,East,90,0.0,2.9,86,0.00,,,0.00,VWS V13.00,2013-11-17 17:35:00,
2013-11-17 12:40:00,63.3,59.0,30.12,SSE,158,0.6,2.9,86,0.00,,,0.00,VWS V13.00,2013-11-17 17:40:00,
2013-11-17 12:45:00,63.3,59.0,30.12,SSE,158,2.2,2.2,86,0.00,,,0.00,VWS V13.00,2013-11-17 17:45:00,
2013-11-17 12:50:00,63.3,59.0,30.11,South,180,1.7,2.2,86,0.00,,,0.00,VWS V13.00,2013-11-17 17:50:00,
2013-11-17 12:55:00,63.3,59.0,30.11,South,180,4.9,4.9,86,0.00,,,0.00,VWS V13.00,2013-11-17 17:55:00,
2013-11-17 13:00:00,63.1,58.8,30.11,South,180,3.1,4.9,86,0.00,,,0.00,VWS V13.00,2013-11-17 18:00:00,
2013-11-17 13:05:00,62.9,58.7,30.11,South,180,4.4,4.4,86,0.00,,,0.00,VWS V13.00,2013-11-17 18:05:00,
2013-11-17 13:10:00,62.4,57.8,30.11,SSE,158,1.5,4.4,85,0.00,,,0.00,VWS V13.00,2013-11-17 18:10:00,
2013-11-17 13:15:00,61.8,57.2,30.11,SSE,158,1.1,4.4,85,0.00,,,0.00,VWS V13.00,2013-11-17 18:15:00,
2013-11-17 13:20:00,61.5,57.3,30.11,South,180,4.0,4.4,86,0.00,,,0.00,VWS V13.00,2013-11-17 18:20:00,
2013-11-17 13:25:00,61.3,57.1,30.10,South,180,2.2,4.4,86,0.00,,,0.00,VWS V13.00,2013-11-17 18:25:00,
2013-11-17 13:30:00,61.5,57.6,30.09,SSW,202,5.3,5.3,87,0.00,,,0.00,VWS V13.00,2013-11-17 18:30:00,
2013-11-17 13:35:00,62.4,58.5,30.09,South,180,3.5,5.3,87,0.00,,,0.00,VWS V13.00,2013-11-17 18:35:00,
2013-11-17 13:40:00,63.1,58.8,30.09,South,180,3.5,5.3,86,0.00,,,0.00,VWS V13.00,2013-11-17 18:40:00,
2013-11-17 13:45:00,63.5,58.6,30.09,South,180,0.0,4.4,84,0.00,,,0.00,VWS V13.00,2013-11-17 18:45:00,
2013-11-17 13:50:00,63.3,58.4,30.08,SSE,158,2.2,60.8,84,0.00,,,0.00,VWS V13.00,2013-11-17 18:50:00,
2013-11-17 13:55:00,62.9,57.7,30.08,SSE,158,0.0,60.8,83,0.00,,,0.00,VWS V13.00,2013-11-17 18:55:00,
2013-11-17 14:00:00,62.2,57.0,30.08,SSE,158,5.1,60.8,83,0.00,,,0.00,VWS V13.00,2013-11-17 19:00:00,
2013-11-17 14:05:00,61.7,56.5,30.08,SSE,158,5.3,5.5,83,0.00,,,0.00,VWS V13.00,2013-11-17 19:05:00,
2013-11-17 14:10:00,61.1,56.2,30.08,South,180,4.0,5.5,84,0.00,,,0.00,VWS V13.00,2013-11-17 19:10:00,
2013-11-17 14:15:00,60.6,55.8,30.07,SSW,202,4.0,6.7,84,0.00,,,0.00,VWS V13.00,2013-11-17 19:15:00,
2013-11-17 14:20:00,60.4,55.9,30.08,SE,135,1.5,6.7,85,0.00,,,0.00,VWS V13.00,2013-11-17 19:20:00,
2013-11-17 14:25:00,60.0,55.5,30.07,South,180,2.4,2.4,85,0.00,,,0.00,VWS V13.00,2013-11-17 19:25:00,
2013-11-17 14:30:00,59.7,55.2,30.08,South,180,4.0,4.0,85,0.00,,,0.00,VWS V13.00,2013-11-17 19:30:00,
2013-11-17 14:35:00,59.7,55.5,30.08,South,180,3.3,4.0,86,0.00,,,0.00,VWS V13.00,2013-11-17 19:35:00,
2013-11-17 14:40:00,59.5,55.3,30.08,South,180,4.6,4.6,86,0.00,,,0.00,VWS V13.00,2013-11-17 19:40:00,
2013-11-17 14:45:00,59.3,55.4,30.07,SE,135,1.5,2.9,87,0.00,,,0.00,VWS V13.00,2013-11-17 19:45:00,
2013-11-17 14:50:00,59.3,55.4,30.07,ESE,112,2.2,2.9,87,0.00,,,0.00,VWS V13.00,2013-11-17 19:50:00,
2013-11-17 14:55:00,59.3,55.4,30.07,South,180,3.5,3.5,87,0.00,,,0.00,VWS V13.00,2013-11-17 19:55:00,
2013-11-17 15:00:00,59.3,55.4,30.07,SE,135,4.6,4.6,87,0.00,,,0.00,VWS V13.00,2013-11-17 20:00:00,
2013-11-17 15:05:00,59.1,55.2,30.07,SE,135,2.0,4.6,87,0.00,,,0.00,VWS V13.00,2013-11-17 20:05:00,
2013-11-17 15:10:00,59.1,55.2,30.06,SSE,158,1.1,4.6,87,0.00,,,0.00,VWS V13.00,2013-11-17 20:10:00,
2013-11-17 15:15:00,59.3,55.8,30.06,South,180,2.4,4.6,88,0.00,,,0.00,VWS V13.00,2013-11-17 20:15:00,
2013-11-17 15:20:00,59.5,56.0,30.06,South,180,2.0,4.6,88,0.00,,,0.00,VWS V13.00,2013-11-17 20:20:00,
2013-11-17 15:25:00,59.5,56.0,30.06,ESE,112,2.9,4.0,88,0.00,,,0.00,VWS V13.00,2013-11-17 20:25:00,
2013-11-17 15:30:00,59.5,56.0,30.05,South,180,3.1,4.0,88,0.00,,,0.00,VWS V13.00,2013-11-17 20:30:00,
2013-11-17 15:35:00,59.5,56.0,30.05,South,180,2.2,4.0,88,0.00,,,0.00,VWS V13.00,2013-11-17 20:35:00,
2013-11-17 15:40:00,59.5,56.0,30.05,SSE,158,2.0,4.9,88,0.00,,,0.00,VWS V13.00,2013-11-17 20:40:00,
2013-11-17 15:45:00,59.3,55.8,30.04,SSE,158,3.8,4.2,88,0.00,,,0.00,VWS V13.00,2013-11-17 20:45:00,
2013-11-17 15:50:00,59.1,55.5,30.04,SE,135,1.5,4.2,88,0.00,,,0.00,VWS V13.00,2013-11-17 20:50:00,
2013-11-17 15:55:00,59.0,55.5,30.04,SSE,158,0.8,4.2,88,0.00,,,0.00,VWS V13.00,2013-11-17 20:55:00,
2013-11-17 16:00:00,58.8,55.3,30.04,South,180,3.8,4.2,88,0.00,,,0.00,VWS V13.00,2013-11-17 21:00:00,
2013-11-17 16:05:00,58.6,55.1,30.04,SSE,158,2.9,3.8,88,0.00,,,0.00,VWS V13.00,2013-11-17 21:05:00,
2013-11-17 16:10:00,58.4,54.9,30.04,SE,135,1.7,3.8,88,0.00,,,0.00,VWS V13.00,2013-11-17 21:10:00,
2013-11-17 16:15:00,58.2,54.7,30.03,SE,135,0.0,3.8,88,0.00,,,0.00,VWS V13.00,2013-11-17 21:15:00,
2013-11-17 16:20:00,58.1,54.6,30.04,SE,135,2.2,3.8,88,0.00,,,0.00,VWS V13.00,2013-11-17 21:20:00,
2013-11-17 16:25:00,57.9,54.7,30.04,SE,135,2.6,3.8,89,0.00,,,0.00,VWS V13.00,2013-11-17 21:25:00,
2013-11-17 16:30:00,57.9,54.7,30.03,ESE,112,0.0,3.8,89,0.00,,,0.00,VWS V13.00,2013-11-17 21:30:00,
2013-11-17 16:35:00,57.7,54.5,30.03,SE,135,4.2,4.2,89,0.00,,,0.00,VWS V13.00,2013-11-17 21:35:00,
2013-11-17 16:40:00,57.7,54.5,30.03,SE,135,2.2,4.2,89,0.00,,,0.00,VWS V13.00,2013-11-17 21:40:00,
2013-11-17 16:45:00,57.3,54.1,30.03,South,180,4.0,4.0,89,0.00,,,0.00,VWS V13.00,2013-11-17 21:45:00,
2013-11-17 16:50:00,57.3,54.1,30.03,SSW,202,3.1,4.0,89,0.00,,,0.00,VWS V13.00,2013-11-17 21:50:00,
2013-11-17 16:55:00,57.0,53.8,30.03,SSE,158,2.0,4.0,89,0.00,,,0.00,VWS V13.00,2013-11-17 21:55:00,
2013-11-17 17:00:00,57.0,53.8,30.03,SE,135,2.2,4.9,89,0.00,,,0.00,VWS V13.00,2013-11-17 22:00:00,
2013-11-17 17:05:00,56.8,53.6,30.03,SE,135,1.3,2.2,89,0.00,,,0.00,VWS V13.00,2013-11-17 22:05:00,
2013-11-17 17:10:00,56.8,53.6,30.02,SE,135,2.9,2.9,89,0.00,,,0.00,VWS V13.00,2013-11-17 22:10:00,
2013-11-17 17:15:00,56.8,53.9,30.02,South,180,2.2,2.9,90,0.00,,,0.00,VWS V13.00,2013-11-17 22:15:00,
2013-11-17 17:20:00,56.8,53.9,30.02,SSE,158,2.2,2.9,90,0.00,,,0.00,VWS V13.00,2013-11-17 22:20:00,
2013-11-17 17:25:00,56.8,53.9,30.02,SSE,158,3.1,3.1,90,0.00,,,0.00,VWS V13.00,2013-11-17 22:25:00,
2013-11-17 17:30:00,56.6,53.7,30.02,SE,135,4.9,4.9,90,0.00,,,0.00,VWS V13.00,2013-11-17 22:30:00,
2013-11-17 17:35:00,56.4,53.5,30.02,SE,135,4.9,4.9,90,0.00,,,0.00,VWS V13.00,2013-11-17 22:35:00,
2013-11-17 17:40:00,56.4,53.5,30.02,South,180,3.5,5.8,90,0.00,,,0.00,VWS V13.00,2013-11-17 22:40:00,
2013-11-17 17:45:00,56.4,53.5,30.02,SSW,202,4.6,4.6,90,0.00,,,0.00,VWS V13.00,2013-11-17 22:45:00,
2013-11-17 17:50:00,56.8,53.9,30.02,SSE,158,2.0,5.8,90,0.00,,,0.00,VWS V13.00,2013-11-17 22:50:00,
2013-11-17 17:55:00,57.0,54.4,30.02,SE,135,5.1,5.8,91,0.00,,,0.00,VWS V13.00,2013-11-17 22:55:00,
2013-11-17 18:00:00,57.0,54.4,30.01,South,180,2.6,5.8,91,0.00,,,0.00,VWS V13.00,2013-11-17 23:00:00,
2013-11-17 18:05:00,57.0,54.4,30.01,South,180,2.6,2.6,91,0.00,,,0.00,VWS V13.00,2013-11-17 23:05:00,
2013-11-17 18:10:00,56.8,54.2,30.02,SE,135,5.1,5.8,91,0.00,,,0.00,VWS V13.00,2013-11-17 23:10:00,
2013-11-17 18:15:00,56.8,54.2,30.01,ESE,112,4.0,5.8,91,0.00,,,0.00,VWS V13.00,2013-11-17 23:15:00,
2013-11-17 18:20:00,56.8,54.2,30.01,SSE,158,3.8,3.8,91,0.00,,,0.00,VWS V13.00,2013-11-17 23:20:00,
2013-11-17 18:26:00,57.0,54.4,30.01,ESE,112,5.3,5.3,91,0.00,,,0.00,VWS V13.00,2013-11-17 23:26:00,
2013-11-17 18:31:00,57.0,54.4,30.01,South,180,4.0,5.3,91,0.00,,,0.00,VWS V13.00,2013-11-17 23:31:00,
2013-11-17 18:36:00,57.0,54.4,30.01,SSE,158,6.7,6.7,91,0.00,,,0.00,VWS V13.00,2013-11-17 23:36:00,
2013-11-17 18:41:00,57.3,54.7,30.00,South,180,3.1,3.1,91,0.00,,,0.00,VWS V13.00,2013-11-17 23:41:00,
2013-11-17 18:46:00,57.5,54.9,30.00,SSW,202,2.2,7.3,91,0.00,,,0.00,VWS V13.00,2013-11-17 23:46:00,
2013-11-17 18:51:00,57.5,54.9,29.99,SE,135,3.3,7.3,91,0.00,,,0.00,VWS V13.00,2013-11-17 23:51:00,
2013-11-17 18:56:00,57.5,54.9,29.99,SSW,202,6.7,7.3,91,0.00,,,0.00,VWS V13.00,2013-11-17 23:56:00,
2013-11-17 19:01:00,57.5,54.9,30.00,SE,135,6.2,6.2,91,0.00,,,0.00,VWS V13.00,2013-11-18 00:01:00,
2013-11-17 19:06:00,57.7,55.1,30.00,SSE,158,9.3,9.3,91,0.00,,,0.00,VWS V13.00,2013-11-18 00:06:00,
2013-11-17 19:11:00,57.9,55.6,30.00,South,180,6.0,9.3,92,0.00,,,0.00,VWS V13.00,2013-11-18 00:11:00,
2013-11-17 19:16:00,57.9,55.6,29.99,SSE,158,2.9,9.3,92,0.00,,,0.00,VWS V13.00,2013-11-18 00:16:00,
2013-11-17 19:21:00,57.9,55.6,29.99,South,180,9.1,9.1,92,0.00,,,0.00,VWS V13.00,2013-11-18 00:21:00,
2013-11-17 19:26:00,57.7,55.1,29.99,SSE,158,9.1,9.1,91,0.00,,,0.00,VWS V13.00,2013-11-18 00:26:00,
2013-11-17 19:31:00,57.5,55.2,29.98,ESE,112,6.9,9.1,92,0.00,,,0.00,VWS V13.00,2013-11-18 00:31:00,
2013-11-17 19:36:00,57.7,55.4,29.99,SSE,158,9.3,9.3,92,0.00,,,0.00,VWS V13.00,2013-11-18 00:36:00,
2013-11-17 19:41:00,57.7,55.4,29.98,South,180,5.3,5.3,92,0.00,,,0.00,VWS V13.00,2013-11-18 00:41:00,
2013-11-17 19:46:00,57.9,55.6,29.98,SSW,202,10.9,10.9,92,0.00,,,0.00,VWS V13.00,2013-11-18 00:46:00,
2013-11-17 19:51:00,57.9,55.6,29.97,SSE,158,9.8,10.9,92,0.00,,,0.00,VWS V13.00,2013-11-18 00:51:00,
2013-11-17 19:56:00,58.2,55.9,29.97,SSE,158,6.0,10.9,92,0.00,,,0.00,VWS V13.00,2013-11-18 00:56:00,
2013-11-17 20:01:00,58.4,56.1,29.97,South,180,7.1,7.1,92,0.00,,,0.00,VWS V13.00,2013-11-18 01:01:00,
2013-11-17 20:06:00,58.2,55.9,29.98,SSE,158,7.3,9.1,92,0.00,,,0.00,VWS V13.00,2013-11-18 01:06:00,
2013-11-17 20:11:00,58.6,56.3,29.98,South,180,9.1,10.9,92,0.00,,,0.00,VWS V13.00,2013-11-18 01:11:00,
2013-11-17 20:16:00,58.6,56.3,29.98,South,180,11.8,11.8,92,0.00,,,0.00,VWS V13.00,2013-11-18 01:16:00,
2013-11-17 20:21:00,58.4,56.1,29.97,SE,135,5.1,5.1,92,0.00,,,0.00,VWS V13.00,2013-11-18 01:21:00,
2013-11-17 20:26:00,58.2,55.9,29.96,SSE,158,11.4,12.0,92,0.00,,,0.00,VWS V13.00,2013-11-18 01:26:00,
2013-11-17 20:31:00,58.2,55.9,29.96,South,180,14.5,14.5,92,0.00,,,0.00,VWS V13.00,2013-11-18 01:31:00,
2013-11-17 20:36:00,58.2,55.9,29.95,South,180,14.0,14.5,92,0.00,,,0.00,VWS V13.00,2013-11-18 01:36:00,
2013-11-17 20:41:00,58.1,55.8,29.95,SE,135,11.1,11.1,92,0.00,,,0.00,VWS V13.00,2013-11-18 01:41:00,
2013-11-17 20:46:00,58.1,55.8,29.95,SSE,158,8.7,11.1,92,0.00,,,0.00,VWS V13.00,2013-11-18 01:46:00,
2013-11-17 20:51:00,57.9,55.6,29.95,SSE,158,10.2,11.1,92,0.00,,,0.00,VWS V13.00,2013-11-18 01:51:00,
2013-11-17 20:56:00,57.9,55.6,29.94,SE,135,9.8,11.1,92,0.00,,,0.00,VWS V13.00,2013-11-18 01:56:00,
2013-11-17 21:01:00,57.7,55.4,29.93,SSE,158,9.3,9.3,92,0.00,,,0.00,VWS V13.00,2013-11-18 02:01:00,
2013-11-17 21:06:00,57.7,55.4,29.93,ESE,112,8.0,9.3,92,0.00,,,0.00,VWS V13.00,2013-11-18 02:06:00,
2013-11-17 21:11:00,57.5,55.2,29.94,South,180,7.3,9.3,92,0.00,,,0.00,VWS V13.00,2013-11-18 02:11:00,
2013-11-17 21:16:00,57.5,55.2,29.94,South,180,12.7,12.7,92,0.00,,,0.00,VWS V13.00,2013-11-18 02:16:00,
2013-11-17 21:21:00,57.5,55.2,29.94,SSE,158,7.3,7.3,92,0.00,,,0.00,VWS V13.00,2013-11-18 02:21:00,
2013-11-17 21:26:00,57.5,55.2,29.93,SSE,158,9.8,13.1,92,0.00,,,0.00,VWS V13.00,2013-11-18 02:26:00,
2013-11-17 21:31:00,57.5,55.2,29.93,South,180,9.6,14.3,92,0.00,,,0.00,VWS V13.00,2013-11-18 02:31:00,
2013-11-17 21:36:00,57.5,55.2,29.92,SE,135,6.9,14.3,92,0.00,,,0.00,VWS V13.00,2013-11-18 02:36:00,
2013-11-17 21:41:00,57.5,55.2,29.91,South,180,13.8,13.8,92,0.00,,,0.00,VWS V13.00,2013-11-18 02:41:00,
2013-11-17 21:46:00,57.5,55.2,29.91,SSW,202,9.3,13.8,92,0.00,,,0.00,VWS V13.00,2013-11-18 02:46:00,
2013-11-17 21:51:00,57.7,55.4,29.91,South,180,12.7,13.8,92,0.00,,,0.00,VWS V13.00,2013-11-18 02:51:00,
2013-11-17 21:56:00,57.7,55.4,29.91,SE,135,10.5,16.3,92,0.00,,,0.00,VWS V13.00,2013-11-18 02:56:00,
2013-11-17 22:01:00,57.9,55.6,29.90,SSE,158,6.4,6.4,92,0.00,,,0.00,VWS V13.00,2013-11-18 03:01:00,
2013-11-17 22:06:00,57.9,55.9,29.90,SSE,158,11.8,12.0,93,0.00,,,0.00,VWS V13.00,2013-11-18 03:06:00,
2013-11-17 22:11:00,57.9,55.9,29.90,SSW,202,9.1,12.0,93,0.00,,,0.00,VWS V13.00,2013-11-18 03:11:00,
2013-11-17 22:16:00,57.9,55.9,29.90,SSE,158,13.1,13.1,93,0.00,,,0.00,VWS V13.00,2013-11-18 03:16:00,
2013-11-17 22:21:00,57.9,55.9,29.90,SSE,158,6.9,6.9,93,0.00,,,0.00,VWS V13.00,2013-11-18 03:21:00,
2013-11-17 22:26:00,57.9,55.9,29.89,South,180,10.5,10.5,93,0.00,,,0.00,VWS V13.00,2013-11-18 03:26:00,
2013-11-17 22:31:00,57.9,55.9,29.89,SSE,158,8.5,10.5,93,0.00,,,0.00,VWS V13.00,2013-11-18 03:31:00,
2013-11-17 22:36:00,57.7,55.7,29.88,SE,135,4.9,10.5,93,0.00,,,0.00,VWS V13.00,2013-11-18 03:36:00,
2013-11-17 22:41:00,57.5,55.5,29.88,SSE,158,4.6,4.6,93,0.00,,,0.00,VWS V13.00,2013-11-18 03:41:00,
2013-11-17 22:46:00,57.5,55.5,29.87,SSE,158,5.8,6.4,93,0.00,,,0.00,VWS V13.00,2013-11-18 03:46:00,
2013-11-17 22:51:00,57.3,55.3,29.86,South,180,7.8,8.9,93,0.00,,,0.00,VWS V13.00,2013-11-18 03:51:00,
2013-11-17 22:56:00,57.3,55.3,29.86,SSE,158,8.9,8.9,93,0.00,,,0.00,VWS V13.00,2013-11-18 03:56:00,
2013-11-17 23:02:00,57.3,55.3,29.86,SSE,158,6.9,6.9,93,0.00,,,0.00,VWS V13.00,2013-11-18 04:02:00,
2013-11-17 23:06:00,57.3,55.3,29.86,SSE,158,6.7,7.6,93,0.00,,,0.00,VWS V13.00,2013-11-18 04:06:00,
2013-11-17 23:11:00,57.3,55.3,29.86,South,180,9.6,14.0,93,0.00,,,0.00,VWS V13.00,2013-11-18 04:11:00,
2013-11-17 23:16:00,57.5,55.5,29.86,SSE,158,14.0,14.0,93,0.00,,,0.00,VWS V13.00,2013-11-18 04:16:00,
2013-11-17 23:22:00,57.7,55.7,29.86,South,180,7.3,9.1,93,0.00,,,0.00,VWS V13.00,2013-11-18 04:22:00,
2013-11-17 23:27:00,57.9,55.9,29.86,South,180,13.1,13.1,93,0.00,,,0.00,VWS V13.00,2013-11-18 04:27:00,
2013-11-17 23:32:00,57.9,55.9,29.86,South,180,10.7,13.4,93,0.00,,,0.00,VWS V13.00,2013-11-18 04:32:00,
2013-11-17 23:37:00,57.7,55.7,29.86,South,180,11.4,13.4,93,0.00,,,0.00,VWS V13.00,2013-11-18 04:37:00,
2013-11-17 23:42:00,57.7,55.7,29.86,South,180,7.3,7.3,93,0.00,,,0.00,VWS V13.00,2013-11-18 04:42:00,
2013-11-17 23:47:00,57.7,55.7,29.86,SSE,158,13.1,14.9,93,0.00,,,0.00,VWS V13.00,2013-11-18 04:47:00,
2013-11-17 23:52:00,57.9,55.9,29.84,SSE,158,8.9,14.9,93,0.00,,,0.00,VWS V13.00,2013-11-18 04:52:00,
2013-11-17 23:57:00,57.7,55.7,29.84,SSE,158,17.2,17.2,93,0.00,,,0.00,VWS V13.00,2013-11-18 04:57:00,